sensor_id;sensor_type;location;lat;lon;timestamp;temperature;humidity
33863;DHT22;20158;51.436;-2.742;2023-05-14T00:02:13;16.30;56.30
33863;DHT22;20158;51.436;-2.742;2023-05-14T00:04:39;16.30;56.40
33863;DHT22;20158;51.436;-2.742;2023-05-14T00:07:05;16.20;56.40
33863;DHT22;20158;51.436;-2.742;2023-05-14T00:09:31;16.20;56.50
33863;DHT22;20158;51.436;-2.742;2023-05-14T00:11:57;16.20;56.60
33863;DHT22;20158;51.436;-2.742;2023-05-14T00:14:23;16.10;56.60
33863;DHT22;20158;51.436;-2.742;2023-05-14T00:16:49;16.00;56.60
33863;DHT22;20158;51.436;-2.742;2023-05-14T00:19:16;16.00;56.70
33863;DHT22;20158;51.436;-2.742;2023-05-14T00:21:42;16.00;56.90
33863;DHT22;20158;51.436;-2.742;2023-05-14T00:24:08;16.00;56.90
33863;DHT22;20158;51.436;-2.742;2023-05-14T00:26:34;15.90;56.80
33863;DHT22;20158;51.436;-2.742;2023-05-14T00:29:00;15.90;57.00
33863;DHT22;20158;51.436;-2.742;2023-05-14T00:31:26;15.90;57.00
33863;DHT22;20158;51.436;-2.742;2023-05-14T00:33:52;15.80;56.90
33863;DHT22;20158;51.436;-2.742;2023-05-14T00:36:18;15.80;57.00
33863;DHT22;20158;51.436;-2.742;2023-05-14T00:38:44;15.80;57.10
33863;DHT22;20158;51.436;-2.742;2023-05-14T00:41:10;15.70;57.00
33863;DHT22;20158;51.436;-2.742;2023-05-14T00:43:36;15.70;57.10
33863;DHT22;20158;51.436;-2.742;2023-05-14T00:46:02;15.70;57.20
33863;DHT22;20158;51.436;-2.742;2023-05-14T00:48:28;15.60;57.10
33863;DHT22;20158;51.436;-2.742;2023-05-14T00:50:54;15.60;57.20
33863;DHT22;20158;51.436;-2.742;2023-05-14T00:53:21;15.60;57.30
33863;DHT22;20158;51.436;-2.742;2023-05-14T00:55:48;15.50;57.20
33863;DHT22;20158;51.436;-2.742;2023-05-14T00:58:14;15.50;57.40
33863;DHT22;20158;51.436;-2.742;2023-05-14T01:00:42;15.50;57.40
33863;DHT22;20158;51.436;-2.742;2023-05-14T01:03:09;15.40;57.30
33863;DHT22;20158;51.436;-2.742;2023-05-14T01:11:31;15.30;57.60
33863;DHT22;20158;51.436;-2.742;2023-05-14T01:14:26;15.20;57.30
33863;DHT22;20158;51.436;-2.742;2023-05-14T01:16:57;15.20;57.50
33863;DHT22;20158;51.436;-2.742;2023-05-14T01:19:43;15.20;57.60
33863;DHT22;20158;51.436;-2.742;2023-05-14T01:22:11;15.10;57.60
33863;DHT22;20158;51.436;-2.742;2023-05-14T01:24:37;15.10;57.50
33863;DHT22;20158;51.436;-2.742;2023-05-14T01:29:44;15.00;57.70
33863;DHT22;20158;51.436;-2.742;2023-05-14T01:32:14;15.00;57.70
33863;DHT22;20158;51.436;-2.742;2023-05-14T01:34:43;15.00;57.70
33863;DHT22;20158;51.436;-2.742;2023-05-14T01:37:10;15.00;57.80
33863;DHT22;20158;51.436;-2.742;2023-05-14T01:39:37;15.00;57.80
33863;DHT22;20158;51.436;-2.742;2023-05-14T01:42:04;14.90;57.80
33863;DHT22;20158;51.436;-2.742;2023-05-14T01:44:32;14.90;57.80
33863;DHT22;20158;51.436;-2.742;2023-05-14T01:46:58;14.90;57.90
33863;DHT22;20158;51.436;-2.742;2023-05-14T01:49:24;14.90;58.00
33863;DHT22;20158;51.436;-2.742;2023-05-14T01:51:50;14.80;57.90
33863;DHT22;20158;51.436;-2.742;2023-05-14T01:54:16;14.80;58.00
33863;DHT22;20158;51.436;-2.742;2023-05-14T01:56:41;14.70;57.90
33863;DHT22;20158;51.436;-2.742;2023-05-14T01:59:07;14.70;57.90
33863;DHT22;20158;51.436;-2.742;2023-05-14T02:01:35;14.60;57.80
33863;DHT22;20158;51.436;-2.742;2023-05-14T02:04:01;14.60;57.90
33863;DHT22;20158;51.436;-2.742;2023-05-14T02:06:27;14.60;58.00
33863;DHT22;20158;51.436;-2.742;2023-05-14T02:08:55;14.50;58.50
33863;DHT22;20158;51.436;-2.742;2023-05-14T02:11:21;14.50;58.00
33863;DHT22;20158;51.436;-2.742;2023-05-14T02:13:46;14.50;58.10
33863;DHT22;20158;51.436;-2.742;2023-05-14T02:16:13;14.40;57.90
33863;DHT22;20158;51.436;-2.742;2023-05-14T02:18:38;14.40;58.00
33863;DHT22;20158;51.436;-2.742;2023-05-14T02:21:05;14.30;57.90
33863;DHT22;20158;51.436;-2.742;2023-05-14T02:23:31;14.30;58.00
33863;DHT22;20158;51.436;-2.742;2023-05-14T02:25:57;14.20;57.90
33863;DHT22;20158;51.436;-2.742;2023-05-14T02:28:23;14.20;58.00
33863;DHT22;20158;51.436;-2.742;2023-05-14T02:30:49;14.20;58.10
33863;DHT22;20158;51.436;-2.742;2023-05-14T02:33:15;14.20;58.10
33863;DHT22;20158;51.436;-2.742;2023-05-14T02:35:41;14.10;58.00
33863;DHT22;20158;51.436;-2.742;2023-05-14T02:38:07;14.10;58.00
33863;DHT22;20158;51.436;-2.742;2023-05-14T02:40:33;14.10;58.10
33863;DHT22;20158;51.436;-2.742;2023-05-14T02:42:59;14.00;58.00
33863;DHT22;20158;51.436;-2.742;2023-05-14T02:45:25;14.10;58.20
33863;DHT22;20158;51.436;-2.742;2023-05-14T02:47:51;14.00;58.10
33863;DHT22;20158;51.436;-2.742;2023-05-14T02:50:17;14.00;58.10
33863;DHT22;20158;51.436;-2.742;2023-05-14T02:52:43;14.00;58.20
33863;DHT22;20158;51.436;-2.742;2023-05-14T02:55:09;14.00;58.30
33863;DHT22;20158;51.436;-2.742;2023-05-14T02:57:36;13.90;58.10
33863;DHT22;20158;51.436;-2.742;2023-05-14T03:00:04;13.90;58.20
33863;DHT22;20158;51.436;-2.742;2023-05-14T03:02:30;13.80;58.00
33863;DHT22;20158;51.436;-2.742;2023-05-14T03:04:56;13.80;58.20
33863;DHT22;20158;51.436;-2.742;2023-05-14T03:07:22;13.80;58.20
33863;DHT22;20158;51.436;-2.742;2023-05-14T03:09:48;13.70;58.00
33863;DHT22;20158;51.436;-2.742;2023-05-14T03:12:14;13.70;58.20
33863;DHT22;20158;51.436;-2.742;2023-05-14T03:14:40;13.70;58.30
33863;DHT22;20158;51.436;-2.742;2023-05-14T03:17:06;13.70;58.30
33863;DHT22;20158;51.436;-2.742;2023-05-14T03:19:32;13.60;58.20
33863;DHT22;20158;51.436;-2.742;2023-05-14T03:21:58;13.50;58.10
33863;DHT22;20158;51.436;-2.742;2023-05-14T03:24:24;13.50;58.20
33863;DHT22;20158;51.436;-2.742;2023-05-14T03:26:50;13.50;58.30
33863;DHT22;20158;51.436;-2.742;2023-05-14T03:29:16;13.40;58.20
33863;DHT22;20158;51.436;-2.742;2023-05-14T03:31:43;13.40;58.30
33863;DHT22;20158;51.436;-2.742;2023-05-14T03:34:09;13.40;58.40
33863;DHT22;20158;51.436;-2.742;2023-05-14T03:36:35;13.30;58.20
33863;DHT22;20158;51.436;-2.742;2023-05-14T03:39:03;13.30;58.30
33863;DHT22;20158;51.436;-2.742;2023-05-14T03:41:31;13.30;58.30
33863;DHT22;20158;51.436;-2.742;2023-05-14T03:43:57;13.30;58.30
33863;DHT22;20158;51.436;-2.742;2023-05-14T03:46:23;13.30;58.40
33863;DHT22;20158;51.436;-2.742;2023-05-14T03:48:49;13.30;58.50
33863;DHT22;20158;51.436;-2.742;2023-05-14T03:51:15;13.30;59.10
33863;DHT22;20158;51.436;-2.742;2023-05-14T03:53:41;13.20;58.40
33863;DHT22;20158;51.436;-2.742;2023-05-14T03:56:07;13.20;58.50
33863;DHT22;20158;51.436;-2.742;2023-05-14T03:58:33;13.20;58.50
33863;DHT22;20158;51.436;-2.742;2023-05-14T04:00:59;13.20;58.50
33863;DHT22;20158;51.436;-2.742;2023-05-14T04:03:25;13.10;58.40
33863;DHT22;20158;51.436;-2.742;2023-05-14T04:05:51;13.10;58.50
33863;DHT22;20158;51.436;-2.742;2023-05-14T04:08:17;13.10;58.50
33863;DHT22;20158;51.436;-2.742;2023-05-14T04:10:43;13.10;58.70
33863;DHT22;20158;51.436;-2.742;2023-05-14T04:13:08;13.00;58.50
33863;DHT22;20158;51.436;-2.742;2023-05-14T04:15:37;13.00;58.60
33863;DHT22;20158;51.436;-2.742;2023-05-14T04:18:04;13.00;58.70
33863;DHT22;20158;51.436;-2.742;2023-05-14T04:20:30;12.90;58.50
33863;DHT22;20158;51.436;-2.742;2023-05-14T04:22:56;13.00;58.80
33863;DHT22;20158;51.436;-2.742;2023-05-14T04:25:22;12.90;58.70
33863;DHT22;20158;51.436;-2.742;2023-05-14T04:27:48;12.90;58.70
33863;DHT22;20158;51.436;-2.742;2023-05-14T04:30:14;12.90;58.90
33863;DHT22;20158;51.436;-2.742;2023-05-14T04:32:40;12.90;58.90
33863;DHT22;20158;51.436;-2.742;2023-05-14T04:35:07;12.80;58.70
33863;DHT22;20158;51.436;-2.742;2023-05-14T04:37:34;12.80;58.80
33863;DHT22;20158;51.436;-2.742;2023-05-14T04:39:59;12.80;58.80
33863;DHT22;20158;51.436;-2.742;2023-05-14T04:42:25;12.80;58.80
33863;DHT22;20158;51.436;-2.742;2023-05-14T04:44:51;12.80;58.90
33863;DHT22;20158;51.436;-2.742;2023-05-14T04:47:17;12.90;59.00
33863;DHT22;20158;51.436;-2.742;2023-05-14T04:49:43;12.90;59.00
33863;DHT22;20158;51.436;-2.742;2023-05-14T04:52:09;12.90;59.00
33863;DHT22;20158;51.436;-2.742;2023-05-14T04:54:35;12.90;59.00
33863;DHT22;20158;51.436;-2.742;2023-05-14T04:57:00;12.90;59.00
33863;DHT22;20158;51.436;-2.742;2023-05-14T04:59:28;12.90;59.00
33863;DHT22;20158;51.436;-2.742;2023-05-14T05:01:54;13.00;59.10
33863;DHT22;20158;51.436;-2.742;2023-05-14T05:04:20;13.00;59.10
33863;DHT22;20158;51.436;-2.742;2023-05-14T05:06:51;13.00;59.10
33863;DHT22;20158;51.436;-2.742;2023-05-14T05:09:17;13.00;59.70
33863;DHT22;20158;51.436;-2.742;2023-05-14T05:11:43;13.00;59.10
33863;DHT22;20158;51.436;-2.742;2023-05-14T05:14:09;13.10;59.30
33863;DHT22;20158;51.436;-2.742;2023-05-14T05:16:35;13.10;59.40
33863;DHT22;20158;51.436;-2.742;2023-05-14T05:19:01;13.20;59.80
33863;DHT22;20158;51.436;-2.742;2023-05-14T05:21:27;13.20;59.80
33863;DHT22;20158;51.436;-2.742;2023-05-14T05:23:53;13.20;60.00
33863;DHT22;20158;51.436;-2.742;2023-05-14T05:26:19;13.30;60.20
33863;DHT22;20158;51.436;-2.742;2023-05-14T05:28:46;13.30;60.30
33863;DHT22;20158;51.436;-2.742;2023-05-14T05:31:13;13.40;60.50
33863;DHT22;20158;51.436;-2.742;2023-05-14T05:33:39;13.50;60.80
33863;DHT22;20158;51.436;-2.742;2023-05-14T05:36:05;13.60;61.40
33863;DHT22;20158;51.436;-2.742;2023-05-14T05:38:31;13.80;61.90
33863;DHT22;20158;51.436;-2.742;2023-05-14T05:40:57;14.00;62.30
33863;DHT22;20158;51.436;-2.742;2023-05-14T05:43:23;14.10;62.50
33863;DHT22;20158;51.436;-2.742;2023-05-14T05:45:49;14.30;62.70
33863;DHT22;20158;51.436;-2.742;2023-05-14T05:48:15;14.50;62.90
33863;DHT22;20158;51.436;-2.742;2023-05-14T05:50:41;14.70;63.10
33863;DHT22;20158;51.436;-2.742;2023-05-14T05:53:09;14.90;63.30
33863;DHT22;20158;51.436;-2.742;2023-05-14T05:55:35;15.20;63.50
33863;DHT22;20158;51.436;-2.742;2023-05-14T05:58:03;15.40;63.60
33863;DHT22;20158;51.436;-2.742;2023-05-14T06:00:29;15.60;63.60
33863;DHT22;20158;51.436;-2.742;2023-05-14T06:02:56;15.80;63.50
33863;DHT22;20158;51.436;-2.742;2023-05-14T06:05:21;15.90;63.30
33863;DHT22;20158;51.436;-2.742;2023-05-14T06:07:48;16.10;63.50
33863;DHT22;20158;51.436;-2.742;2023-05-14T06:10:14;16.20;63.60
33863;DHT22;20158;51.436;-2.742;2023-05-14T06:12:40;16.20;63.50
33863;DHT22;20158;51.436;-2.742;2023-05-14T06:15:07;16.30;63.60
33863;DHT22;20158;51.436;-2.742;2023-05-14T06:17:36;16.40;63.70
33863;DHT22;20158;51.436;-2.742;2023-05-14T06:20:03;16.50;63.70
33863;DHT22;20158;51.436;-2.742;2023-05-14T06:22:30;16.50;63.60
33863;DHT22;20158;51.436;-2.742;2023-05-14T06:24:56;16.50;63.50
33863;DHT22;20158;51.436;-2.742;2023-05-14T06:27:22;16.60;63.60
33863;DHT22;20158;51.436;-2.742;2023-05-14T06:29:48;16.60;63.60
33863;DHT22;20158;51.436;-2.742;2023-05-14T06:32:14;16.60;63.60
33863;DHT22;20158;51.436;-2.742;2023-05-14T06:34:41;16.60;63.70
33863;DHT22;20158;51.436;-2.742;2023-05-14T06:37:09;16.60;63.80
33863;DHT22;20158;51.436;-2.742;2023-05-14T06:39:36;16.60;63.80
33863;DHT22;20158;51.436;-2.742;2023-05-14T06:42:02;16.60;63.80
33863;DHT22;20158;51.436;-2.742;2023-05-14T06:44:30;16.60;63.80
33863;DHT22;20158;51.436;-2.742;2023-05-14T06:46:56;16.70;63.90
33863;DHT22;20158;51.436;-2.742;2023-05-14T06:49:22;16.70;63.90
33863;DHT22;20158;51.436;-2.742;2023-05-14T06:51:48;16.70;63.90
33863;DHT22;20158;51.436;-2.742;2023-05-14T06:54:14;16.80;64.00
33863;DHT22;20158;51.436;-2.742;2023-05-14T06:56:40;16.80;64.00
33863;DHT22;20158;51.436;-2.742;2023-05-14T06:59:05;16.80;64.00
33863;DHT22;20158;51.436;-2.742;2023-05-14T07:01:31;16.80;64.10
33863;DHT22;20158;51.436;-2.742;2023-05-14T07:03:57;16.90;64.20
33863;DHT22;20158;51.436;-2.742;2023-05-14T07:06:23;16.90;64.20
33863;DHT22;20158;51.436;-2.742;2023-05-14T07:08:49;17.00;64.20
33863;DHT22;20158;51.436;-2.742;2023-05-14T07:11:15;17.00;64.10
33863;DHT22;20158;51.436;-2.742;2023-05-14T07:13:42;17.10;64.20
33863;DHT22;20158;51.436;-2.742;2023-05-14T07:16:07;17.20;64.20
33863;DHT22;20158;51.436;-2.742;2023-05-14T07:18:34;17.30;64.30
33863;DHT22;20158;51.436;-2.742;2023-05-14T07:21:00;17.30;64.20
33863;DHT22;20158;51.436;-2.742;2023-05-14T07:23:26;17.30;64.10
33863;DHT22;20158;51.436;-2.742;2023-05-14T07:25:52;17.40;64.20
33863;DHT22;20158;51.436;-2.742;2023-05-14T07:28:18;17.50;64.20
33863;DHT22;20158;51.436;-2.742;2023-05-14T07:30:44;17.50;64.10
33863;DHT22;20158;51.436;-2.742;2023-05-14T07:33:10;17.60;64.20
33863;DHT22;20158;51.436;-2.742;2023-05-14T07:35:36;17.60;64.20
33863;DHT22;20158;51.436;-2.742;2023-05-14T07:38:02;17.70;64.80
33863;DHT22;20158;51.436;-2.742;2023-05-14T07:40:30;17.70;64.10
33863;DHT22;20158;51.436;-2.742;2023-05-14T07:42:56;17.80;64.10
33863;DHT22;20158;51.436;-2.742;2023-05-14T07:45:22;17.80;64.00
33863;DHT22;20158;51.436;-2.742;2023-05-14T07:47:48;17.90;64.10
33863;DHT22;20158;51.436;-2.742;2023-05-14T07:50:17;17.90;64.10
33863;DHT22;20158;51.436;-2.742;2023-05-14T07:52:43;17.90;64.30
33863;DHT22;20158;51.436;-2.742;2023-05-14T07:55:11;18.00;64.50
33863;DHT22;20158;51.436;-2.742;2023-05-14T07:57:37;18.10;64.60
33863;DHT22;20158;51.436;-2.742;2023-05-14T08:00:22;18.20;64.60
33863;DHT22;20158;51.436;-2.742;2023-05-14T08:03:06;18.20;64.60
33863;DHT22;20158;51.436;-2.742;2023-05-14T08:05:38;18.40;64.90
33863;DHT22;20158;51.436;-2.742;2023-05-14T08:08:04;18.50;64.80
33863;DHT22;20158;51.436;-2.742;2023-05-14T08:10:31;18.60;64.70
33863;DHT22;20158;51.436;-2.742;2023-05-14T08:12:57;18.60;64.50
33863;DHT22;20158;51.436;-2.742;2023-05-14T08:15:23;18.60;64.40
33863;DHT22;20158;51.436;-2.742;2023-05-14T08:17:48;18.60;64.20
33863;DHT22;20158;51.436;-2.742;2023-05-14T08:20:14;18.70;64.10
33863;DHT22;20158;51.436;-2.742;2023-05-14T08:22:40;18.70;63.90
33863;DHT22;20158;51.436;-2.742;2023-05-14T08:25:07;18.70;63.80
33863;DHT22;20158;51.436;-2.742;2023-05-14T08:27:32;18.70;63.50
33863;DHT22;20158;51.436;-2.742;2023-05-14T08:29:59;18.80;63.40
33863;DHT22;20158;51.436;-2.742;2023-05-14T08:32:24;18.80;63.70
33863;DHT22;20158;51.436;-2.742;2023-05-14T08:34:50;18.90;63.10
33863;DHT22;20158;51.436;-2.742;2023-05-14T08:37:16;18.90;62.70
33863;DHT22;20158;51.436;-2.742;2023-05-14T08:39:43;19.00;62.60
33863;DHT22;20158;51.436;-2.742;2023-05-14T08:42:11;19.10;62.50
33863;DHT22;20158;51.436;-2.742;2023-05-14T08:45:00;19.20;62.40
33863;DHT22;20158;51.436;-2.742;2023-05-14T08:47:28;19.30;62.10
33863;DHT22;20158;51.436;-2.742;2023-05-14T08:50:05;19.40;62.00
33863;DHT22;20158;51.436;-2.742;2023-05-14T08:52:33;19.50;61.80
33863;DHT22;20158;51.436;-2.742;2023-05-14T08:55:02;19.50;61.70
33863;DHT22;20158;51.436;-2.742;2023-05-14T08:57:30;19.50;61.50
33863;DHT22;20158;51.436;-2.742;2023-05-14T08:59:56;19.60;61.50
33863;DHT22;20158;51.436;-2.742;2023-05-14T09:02:26;19.70;61.40
33863;DHT22;20158;51.436;-2.742;2023-05-14T09:04:55;19.70;61.20
33863;DHT22;20158;51.436;-2.742;2023-05-14T09:07:22;19.70;61.00
33863;DHT22;20158;51.436;-2.742;2023-05-14T09:09:48;19.70;60.90
33863;DHT22;20158;51.436;-2.742;2023-05-14T09:12:15;19.70;60.80
33863;DHT22;20158;51.436;-2.742;2023-05-14T09:14:41;19.70;60.70
33863;DHT22;20158;51.436;-2.742;2023-05-14T09:17:07;19.80;60.70
33863;DHT22;20158;51.436;-2.742;2023-05-14T09:19:33;19.90;60.70
33863;DHT22;20158;51.436;-2.742;2023-05-14T09:21:59;20.00;60.50
33863;DHT22;20158;51.436;-2.742;2023-05-14T09:24:26;20.10;60.30
33863;DHT22;20158;51.436;-2.742;2023-05-14T09:26:57;20.30;60.30
33863;DHT22;20158;51.436;-2.742;2023-05-14T09:29:24;20.40;60.10
33863;DHT22;20158;51.436;-2.742;2023-05-14T09:31:51;20.50;60.00
33863;DHT22;20158;51.436;-2.742;2023-05-14T09:34:43;20.60;59.80
33863;DHT22;20158;51.436;-2.742;2023-05-14T09:37:09;20.90;59.70
33863;DHT22;20158;51.436;-2.742;2023-05-14T09:39:38;21.20;59.70
33863;DHT22;20158;51.436;-2.742;2023-05-14T09:42:04;21.50;59.50
33863;DHT22;20158;51.436;-2.742;2023-05-14T09:44:31;21.60;59.10
33863;DHT22;20158;51.436;-2.742;2023-05-14T09:46:56;21.80;58.90
33863;DHT22;20158;51.436;-2.742;2023-05-14T09:49:22;22.00;58.80
33863;DHT22;20158;51.436;-2.742;2023-05-14T09:51:49;22.20;58.70
33863;DHT22;20158;51.436;-2.742;2023-05-14T09:54:15;22.40;58.50
33863;DHT22;20158;51.436;-2.742;2023-05-14T09:56:42;22.50;58.20
33863;DHT22;20158;51.436;-2.742;2023-05-14T09:59:08;22.70;58.30
33863;DHT22;20158;51.436;-2.742;2023-05-14T10:01:35;22.90;58.30
33863;DHT22;20158;51.436;-2.742;2023-05-14T10:04:05;23.20;58.30
33863;DHT22;20158;51.436;-2.742;2023-05-14T10:06:35;23.50;58.10
33863;DHT22;20158;51.436;-2.742;2023-05-14T10:09:04;23.90;58.00
33863;DHT22;20158;51.436;-2.742;2023-05-14T10:11:32;24.40;58.00
33863;DHT22;20158;51.436;-2.742;2023-05-14T10:14:11;24.80;57.70
33863;DHT22;20158;51.436;-2.742;2023-05-14T10:16:52;25.20;57.00
33863;DHT22;20158;51.436;-2.742;2023-05-14T10:19:20;25.60;56.50
33863;DHT22;20158;51.436;-2.742;2023-05-14T10:21:56;25.80;56.00
33863;DHT22;20158;51.436;-2.742;2023-05-14T10:24:24;26.10;55.60
33863;DHT22;20158;51.436;-2.742;2023-05-14T10:26:51;26.30;55.30
33863;DHT22;20158;51.436;-2.742;2023-05-14T10:29:18;26.50;54.80
33863;DHT22;20158;51.436;-2.742;2023-05-14T10:31:51;26.70;54.40
33863;DHT22;20158;51.436;-2.742;2023-05-14T10:34:40;26.70;54.00
33863;DHT22;20158;51.436;-2.742;2023-05-14T10:37:17;26.80;53.60
33863;DHT22;20158;51.436;-2.742;2023-05-14T10:39:50;26.80;53.80
33863;DHT22;20158;51.436;-2.742;2023-05-14T10:42:25;26.80;53.80
33863;DHT22;20158;51.436;-2.742;2023-05-14T10:44:56;26.80;53.90
33863;DHT22;20158;51.436;-2.742;2023-05-14T10:47:27;26.80;53.90
33863;DHT22;20158;51.436;-2.742;2023-05-14T10:49:55;26.80;54.00
33863;DHT22;20158;51.436;-2.742;2023-05-14T10:52:21;26.80;53.80
33863;DHT22;20158;51.436;-2.742;2023-05-14T10:55:02;26.80;53.70
33863;DHT22;20158;51.436;-2.742;2023-05-14T10:57:30;26.80;53.40
33863;DHT22;20158;51.436;-2.742;2023-05-14T10:59:58;26.90;53.40
33863;DHT22;20158;51.436;-2.742;2023-05-14T11:02:31;27.00;53.20
33863;DHT22;20158;51.436;-2.742;2023-05-14T11:05:00;27.10;53.00
33863;DHT22;20158;51.436;-2.742;2023-05-14T11:07:30;27.20;52.90
33863;DHT22;20158;51.436;-2.742;2023-05-14T11:12:29;27.30;52.70
33863;DHT22;20158;51.436;-2.742;2023-05-14T11:14:56;27.40;53.40
33863;DHT22;20158;51.436;-2.742;2023-05-14T11:17:28;27.50;52.70
33863;DHT22;20158;51.436;-2.742;2023-05-14T11:19:54;27.50;52.60
33863;DHT22;20158;51.436;-2.742;2023-05-14T11:22:21;27.60;52.70
33863;DHT22;20158;51.436;-2.742;2023-05-14T11:24:47;27.70;52.60
33863;DHT22;20158;51.436;-2.742;2023-05-14T11:27:13;27.80;52.60
33863;DHT22;20158;51.436;-2.742;2023-05-14T11:29:44;27.80;52.50
33863;DHT22;20158;51.436;-2.742;2023-05-14T11:32:11;28.00;52.50
33863;DHT22;20158;51.436;-2.742;2023-05-14T11:34:37;28.00;52.60
33863;DHT22;20158;51.436;-2.742;2023-05-14T11:37:04;28.00;52.50
33863;DHT22;20158;51.436;-2.742;2023-05-14T11:39:31;28.10;52.30
33863;DHT22;20158;51.436;-2.742;2023-05-14T11:42:10;28.20;52.20
33863;DHT22;20158;51.436;-2.742;2023-05-14T11:44:40;28.20;51.90
33863;DHT22;20158;51.436;-2.742;2023-05-14T11:47:07;28.30;51.80
33863;DHT22;20158;51.436;-2.742;2023-05-14T11:49:32;28.30;51.60
33863;DHT22;20158;51.436;-2.742;2023-05-14T11:52:01;28.40;51.40
33863;DHT22;20158;51.436;-2.742;2023-05-14T11:54:28;28.40;51.10
33863;DHT22;20158;51.436;-2.742;2023-05-14T11:56:55;28.40;50.90
33863;DHT22;20158;51.436;-2.742;2023-05-14T11:59:26;28.50;50.70
33863;DHT22;20158;51.436;-2.742;2023-05-14T12:01:57;28.60;50.40
33863;DHT22;20158;51.436;-2.742;2023-05-14T12:04:23;28.60;50.20
33863;DHT22;20158;51.436;-2.742;2023-05-14T12:06:50;28.60;50.20
33863;DHT22;20158;51.436;-2.742;2023-05-14T12:09:17;28.60;50.00
33863;DHT22;20158;51.436;-2.742;2023-05-14T12:11:44;28.60;49.80
33863;DHT22;20158;51.436;-2.742;2023-05-14T12:14:14;28.60;49.50
33863;DHT22;20158;51.436;-2.742;2023-05-14T12:16:40;28.70;49.40
33863;DHT22;20158;51.436;-2.742;2023-05-14T12:19:11;28.70;49.30
33863;DHT22;20158;51.436;-2.742;2023-05-14T12:21:38;28.80;49.10
33863;DHT22;20158;51.436;-2.742;2023-05-14T12:24:09;28.90;49.10
33863;DHT22;20158;51.436;-2.742;2023-05-14T12:26:37;28.90;48.80
33863;DHT22;20158;51.436;-2.742;2023-05-14T12:29:06;29.10;48.90
33863;DHT22;20158;51.436;-2.742;2023-05-14T12:31:34;29.10;48.70
33863;DHT22;20158;51.436;-2.742;2023-05-14T12:34:02;29.20;49.00
33863;DHT22;20158;51.436;-2.742;2023-05-14T12:36:29;29.30;48.40
33863;DHT22;20158;51.436;-2.742;2023-05-14T12:39:00;29.40;48.20
33863;DHT22;20158;51.436;-2.742;2023-05-14T12:41:28;29.50;48.00
33863;DHT22;20158;51.436;-2.742;2023-05-14T12:43:55;29.50;47.80
33863;DHT22;20158;51.436;-2.742;2023-05-14T12:46:21;29.50;47.80
33863;DHT22;20158;51.436;-2.742;2023-05-14T12:48:47;29.60;47.60
33863;DHT22;20158;51.436;-2.742;2023-05-14T12:51:13;29.70;47.40
33863;DHT22;20158;51.436;-2.742;2023-05-14T12:53:39;29.80;47.30
33863;DHT22;20158;51.436;-2.742;2023-05-14T12:56:06;29.90;47.10
33863;DHT22;20158;51.436;-2.742;2023-05-14T12:58:32;30.00;46.90
33863;DHT22;20158;51.436;-2.742;2023-05-14T13:00:58;30.10;46.70
33863;DHT22;20158;51.436;-2.742;2023-05-14T13:03:24;30.20;46.60
33863;DHT22;20158;51.436;-2.742;2023-05-14T13:05:51;30.30;46.40
33863;DHT22;20158;51.436;-2.742;2023-05-14T13:08:17;30.40;46.80
33863;DHT22;20158;51.436;-2.742;2023-05-14T13:10:46;30.50;45.90
33863;DHT22;20158;51.436;-2.742;2023-05-14T13:13:14;30.60;45.70
33863;DHT22;20158;51.436;-2.742;2023-05-14T13:15:41;30.70;45.40
33863;DHT22;20158;51.436;-2.742;2023-05-14T13:18:07;30.90;45.40
33863;DHT22;20158;51.436;-2.742;2023-05-14T13:20:33;31.00;45.00
33863;DHT22;20158;51.436;-2.742;2023-05-14T13:22:59;31.20;44.90
33863;DHT22;20158;51.436;-2.742;2023-05-14T13:25:25;31.40;44.70
33863;DHT22;20158;51.436;-2.742;2023-05-14T13:27:52;31.60;44.50
33863;DHT22;20158;51.436;-2.742;2023-05-14T13:30:18;31.70;44.20
33863;DHT22;20158;51.436;-2.742;2023-05-14T13:32:44;31.90;44.00
33863;DHT22;20158;51.436;-2.742;2023-05-14T13:35:11;31.90;43.90
33863;DHT22;20158;51.436;-2.742;2023-05-14T13:37:37;32.00;43.70
33863;DHT22;20158;51.436;-2.742;2023-05-14T13:40:04;32.00;43.50
33863;DHT22;20158;51.436;-2.742;2023-05-14T13:42:33;32.00;43.50
33863;DHT22;20158;51.436;-2.742;2023-05-14T13:44:59;32.00;43.40
33863;DHT22;20158;51.436;-2.742;2023-05-14T13:47:25;32.00;43.40
33863;DHT22;20158;51.436;-2.742;2023-05-14T13:49:54;32.00;43.30
33863;DHT22;20158;51.436;-2.742;2023-05-14T13:52:21;31.90;43.30
33863;DHT22;20158;51.436;-2.742;2023-05-14T13:54:49;31.80;43.30
33863;DHT22;20158;51.436;-2.742;2023-05-14T13:57:15;31.70;43.40
33863;DHT22;20158;51.436;-2.742;2023-05-14T13:59:41;31.50;43.40
33863;DHT22;20158;51.436;-2.742;2023-05-14T14:02:07;31.50;43.60
33863;DHT22;20158;51.436;-2.742;2023-05-14T14:04:33;31.50;43.60
33863;DHT22;20158;51.436;-2.742;2023-05-14T14:06:59;31.50;43.50
33863;DHT22;20158;51.436;-2.742;2023-05-14T14:09:25;31.70;43.50
33863;DHT22;20158;51.436;-2.742;2023-05-14T14:11:51;31.80;43.40
33863;DHT22;20158;51.436;-2.742;2023-05-14T14:14:17;32.10;43.30
33863;DHT22;20158;51.436;-2.742;2023-05-14T14:16:43;32.40;43.00
33863;DHT22;20158;51.436;-2.742;2023-05-14T14:19:09;32.70;42.70
33863;DHT22;20158;51.436;-2.742;2023-05-14T14:21:35;32.80;42.50
33863;DHT22;20158;51.436;-2.742;2023-05-14T14:24:04;32.90;42.50
33863;DHT22;20158;51.436;-2.742;2023-05-14T14:26:30;32.90;42.40
33863;DHT22;20158;51.436;-2.742;2023-05-14T14:28:56;32.90;42.30
33863;DHT22;20158;51.436;-2.742;2023-05-14T14:31:23;32.90;42.30
33863;DHT22;20158;51.436;-2.742;2023-05-14T14:33:49;32.90;42.30
33863;DHT22;20158;51.436;-2.742;2023-05-14T14:36:15;32.90;42.30
33863;DHT22;20158;51.436;-2.742;2023-05-14T14:38:41;32.90;42.30
33863;DHT22;20158;51.436;-2.742;2023-05-14T14:41:07;32.90;42.30
33863;DHT22;20158;51.436;-2.742;2023-05-14T14:43:35;32.90;42.20
33863;DHT22;20158;51.436;-2.742;2023-05-14T14:46:01;32.80;42.10
33863;DHT22;20158;51.436;-2.742;2023-05-14T14:48:29;32.80;42.20
33863;DHT22;20158;51.436;-2.742;2023-05-14T14:51:02;32.80;42.20
33863;DHT22;20158;51.436;-2.742;2023-05-14T14:53:29;32.70;42.10
33863;DHT22;20158;51.436;-2.742;2023-05-14T14:55:56;32.70;41.90
33863;DHT22;20158;51.436;-2.742;2023-05-14T14:58:23;32.50;41.30
33863;DHT22;20158;51.436;-2.742;2023-05-14T15:00:51;32.10;41.10
33863;DHT22;20158;51.436;-2.742;2023-05-14T15:03:17;31.70;41.20
33863;DHT22;20158;51.436;-2.742;2023-05-14T15:05:44;31.20;41.30
33863;DHT22;20158;51.436;-2.742;2023-05-14T15:08:10;30.80;41.60
33863;DHT22;20158;51.436;-2.742;2023-05-14T15:10:36;30.50;41.80
33863;DHT22;20158;51.436;-2.742;2023-05-14T15:13:04;30.20;42.00
33863;DHT22;20158;51.436;-2.742;2023-05-14T15:15:34;29.80;42.20
33863;DHT22;20158;51.436;-2.742;2023-05-14T15:18:02;29.50;42.40
33863;DHT22;20158;51.436;-2.742;2023-05-14T15:20:28;29.20;42.70
33863;DHT22;20158;51.436;-2.742;2023-05-14T15:22:54;28.90;42.90
33863;DHT22;20158;51.436;-2.742;2023-05-14T15:25:21;28.60;43.10
33863;DHT22;20158;51.436;-2.742;2023-05-14T15:27:48;28.20;43.30